createdAt,value
2022-08-28T00:02:02.014Z,16.00
2022-08-28T00:05:06.039Z,17.25
2022-08-28T00:08:09.950Z,17.00
2022-08-28T00:11:12.383Z,18.00
2022-08-28T00:14:14.517Z,17.50
2022-08-28T00:17:17.030Z,16.00
2022-08-28T00:20:20.697Z,19.25
2022-08-28T00:23:25.423Z,17.25
2022-08-28T00:26:57.738Z,18.00
2022-08-28T00:30:00.047Z,17.00
2022-08-28T00:33:16.107Z,15.00
2022-08-28T00:36:19.610Z,16.00
2022-08-28T00:39:21.659Z,18.00
2022-08-28T00:42:27.550Z,15.50
2022-08-28T00:45:30.412Z,18.00
2022-08-28T00:48:33.279Z,17.75
2022-08-28T00:51:55.524Z,16.00
2022-08-28T00:55:02.141Z,16.75
2022-08-28T00:58:06.804Z,17.00
2022-08-28T01:01:09.304Z,16.50
2022-08-28T01:04:19.617Z,16.50
2022-08-28T01:07:23.333Z,18.25
2022-08-28T01:10:28.667Z,16.25
2022-08-28T01:13:31.686Z,18.75
2022-08-28T01:16:34.373Z,14.75
2022-08-28T01:19:40.534Z,19.00
2022-08-28T01:23:07.147Z,21.00
2022-08-28T01:26:10.931Z,16.50
2022-08-28T01:29:14.175Z,16.25
2022-08-28T01:32:33.563Z,18.25
2022-08-28T01:35:39.683Z,16.25
2022-08-28T01:38:44.349Z,17.75
2022-08-28T01:41:49.015Z,15.00
2022-08-28T01:44:52.796Z,16.50
2022-08-28T01:47:55.386Z,15.50
2022-08-28T01:50:57.667Z,16.75
2022-08-28T01:53:59.695Z,13.25
2022-08-28T01:57:02.731Z,15.50
2022-08-28T02:00:05.570Z,15.00
2022-08-28T02:03:14.483Z,17.00
2022-08-28T02:06:17.393Z,17.00
2022-08-28T02:09:19.683Z,16.00
2022-08-28T02:12:21.817Z,17.00
2022-08-28T02:15:25.564Z,12.50
2022-08-28T02:18:27.971Z,17.50
2022-08-28T02:21:30.280Z,15.00
2022-08-28T02:24:32.330Z,17.25
2022-08-28T02:27:35.635Z,17.00
2022-08-28T02:30:37.982Z,17.00
2022-08-28T02:33:43.539Z,17.00
2022-08-28T02:36:45.675Z,16.50
2022-08-28T02:39:47.978Z,17.50
2022-08-28T02:42:50.638Z,16.00
2022-08-28T02:45:53.027Z,16.50
2022-08-28T02:48:56.267Z,13.50
2022-08-28T02:51:59.200Z,17.25
2022-08-28T02:55:01.278Z,14.75
2022-08-28T02:58:03.668Z,16.50
2022-08-28T03:01:07.460Z,15.25
2022-08-28T03:04:09.765Z,14.75
2022-08-28T03:07:13.535Z,18.25
2022-08-28T03:10:16.080Z,16.50
2022-08-28T03:13:23.041Z,16.00
2022-08-28T03:16:30.506Z,16.75
2022-08-28T03:19:32.660Z,16.25
2022-08-28T03:22:53.567Z,16.00
2022-08-28T03:26:20.377Z,16.00
2022-08-28T03:29:22.986Z,15.75
2022-08-28T03:32:26.721Z,14.50
2022-08-28T03:35:31.799Z,17.75
2022-08-28T03:38:34.697Z,17.75
2022-08-28T03:41:37.088Z,17.00
2022-08-28T03:44:39.541Z,16.25
2022-08-28T03:47:42.108Z,17.25
2022-08-28T03:50:45.642Z,15.25
2022-08-28T03:53:48.146Z,13.25
2022-08-28T03:56:50.159Z,12.75
2022-08-28T03:59:53.346Z,15.00
2022-08-28T04:02:55.422Z,14.00
2022-08-28T04:05:57.816Z,18.75
2022-08-28T04:09:00.472Z,17.00
2022-08-28T04:12:03.073Z,16.75
2022-08-28T04:15:07.127Z,17.25
2022-08-28T04:18:10.592Z,18.00
2022-08-28T04:21:22.385Z,14.50
2022-08-28T04:24:24.597Z,17.75
2022-08-28T04:27:26.822Z,15.00
2022-08-28T04:30:29.653Z,15.75
2022-08-28T04:33:32.830Z,18.25
2022-08-28T04:36:35.908Z,15.25
2022-08-28T04:39:38.033Z,17.00
2022-08-28T04:42:40.222Z,16.25
2022-08-28T04:45:43.928Z,14.50
2022-08-28T04:48:46.291Z,17.25
2022-08-28T04:51:48.462Z,16.00
2022-08-28T04:54:50.780Z,15.50
2022-08-28T04:57:53.157Z,16.25
2022-08-28T05:00:55.653Z,16.50
2022-08-28T05:04:00.540Z,15.75
2022-08-28T05:07:02.954Z,16.00
2022-08-28T05:10:05.415Z,16.00
2022-08-28T05:13:09.847Z,17.00
2022-08-28T05:16:12.654Z,15.75
2022-08-28T05:19:18.538Z,17.25
2022-08-28T05:22:20.588Z,17.25
2022-08-28T05:25:22.949Z,16.00
2022-08-28T05:28:25.315Z,14.25
2022-08-28T05:31:30.206Z,16.00
2022-08-28T05:34:32.321Z,14.25
2022-08-28T05:37:34.871Z,15.00
2022-08-28T05:40:49.056Z,20.00
2022-08-28T05:43:52.969Z,16.00
2022-08-28T05:46:55.906Z,16.00
2022-08-28T05:49:59.234Z,15.50
2022-08-28T05:53:01.444Z,16.25
2022-08-28T05:56:05.134Z,17.00
2022-08-28T05:59:08.514Z,16.25
2022-08-28T06:02:10.966Z,15.00
2022-08-28T06:05:13.359Z,15.25
2022-08-28T06:08:15.657Z,14.00
2022-08-28T06:11:21.769Z,14.00
2022-08-28T06:14:27.248Z,14.00
2022-08-28T06:17:29.577Z,14.00
2022-08-28T06:20:38.260Z,10.25
2022-08-28T06:23:41.154Z,14.75
2022-08-28T06:26:43.734Z,14.50
2022-08-28T06:29:47.227Z,15.00
2022-08-28T06:32:49.476Z,15.67
2022-08-28T06:35:54.022Z,17.00
2022-08-28T06:38:58.456Z,14.67
2022-08-28T06:42:01.353Z,14.50
2022-08-28T06:45:04.055Z,14.00
2022-08-28T06:48:06.113Z,14.67
2022-08-28T06:51:11.249Z,17.33
2022-08-28T06:54:18.330Z,15.67
2022-08-28T06:57:25.743Z,16.00
2022-08-28T07:00:27.810Z,17.33
2022-08-28T07:03:30.470Z,16.67
2022-08-28T07:06:34.844Z,17.33
2022-08-28T07:09:37.237Z,15.33
2022-08-28T07:12:40.597Z,16.00
2022-08-28T07:15:42.961Z,13.00
2022-08-28T07:18:45.988Z,15.33
2022-08-28T07:21:48.279Z,14.67
2022-08-28T07:24:50.359Z,16.00
2022-08-28T07:27:52.777Z,12.67
2022-08-28T07:31:04.330Z,16.00
2022-08-28T07:34:06.519Z,14.00
2022-08-28T07:37:11.115Z,16.00
2022-08-28T07:40:18.877Z,14.33
2022-08-28T07:43:40.011Z,17.00
2022-08-28T07:46:42.383Z,13.00
2022-08-28T07:49:46.357Z,16.00
2022-08-28T07:52:48.802Z,14.33
2022-08-28T07:55:51.336Z,13.33
2022-08-28T07:58:53.605Z,13.33
2022-08-28T08:01:55.898Z,15.00
2022-08-28T08:04:58.391Z,12.67
2022-08-28T08:08:00.527Z,15.00
2022-08-28T08:11:11.350Z,12.33
2022-08-28T08:14:18.618Z,13.00
2022-08-28T08:17:21.240Z,13.00
2022-08-28T08:20:23.290Z,17.00
2022-08-28T08:23:26.109Z,10.00
2022-08-28T08:26:29.079Z,13.67
2022-08-28T08:29:35.764Z,14.00
2022-08-28T08:32:39.942Z,14.25
2022-08-28T08:35:42.632Z,13.75
2022-08-28T08:38:45.651Z,14.50
2022-08-28T08:41:52.408Z,14.00
2022-08-28T08:44:58.585Z,10.75
2022-08-28T08:48:01.213Z,15.00
2022-08-28T08:51:15.155Z,13.00
2022-08-28T08:54:21.119Z,12.50
2022-08-28T08:57:23.740Z,13.75
2022-08-28T09:00:26.226Z,14.50
2022-08-28T09:03:59.688Z,14.75
2022-08-28T09:07:13.363Z,14.25
2022-08-28T09:10:15.975Z,15.00
2022-08-28T09:13:29.054Z,14.00
2022-08-28T09:16:41.417Z,14.00
2022-08-28T09:19:44.148Z,15.50
2022-08-28T09:22:48.238Z,14.25
2022-08-28T09:25:53.453Z,14.25
2022-08-28T09:29:07.986Z,15.50
2022-08-28T09:32:22.183Z,14.25
2022-08-28T09:35:24.385Z,15.75
2022-08-28T09:38:27.479Z,15.25
2022-08-28T09:41:49.285Z,16.00
2022-08-28T09:44:59.760Z,14.50
2022-08-28T09:48:03.732Z,14.00
2022-08-28T09:51:09.073Z,13.25
2022-08-28T09:54:36.993Z,13.00
2022-08-28T09:57:44.556Z,13.25
2022-08-28T10:00:53.270Z,15.50
2022-08-28T10:04:00.109Z,12.00
2022-08-28T10:07:06.758Z,13.75
2022-08-28T10:10:24.809Z,13.20
2022-08-28T10:13:42.896Z,15.25
2022-08-28T10:17:13.743Z,15.00
2022-08-28T10:20:54.241Z,13.50
2022-08-28T10:24:41.642Z,14.25
2022-08-28T10:28:20.852Z,13.40
2022-08-28T10:31:23.149Z,12.80
2022-08-28T10:34:38.658Z,11.60
2022-08-28T10:37:59.415Z,13.40
2022-08-28T10:41:21.839Z,11.00
2022-08-28T10:44:30.260Z,13.00
2022-08-28T10:47:35.483Z,11.00
2022-08-28T10:50:44.209Z,11.00
2022-08-28T10:53:54.694Z,11.40
2022-08-28T10:57:15.632Z,12.40
2022-08-28T11:00:23.111Z,11.80
2022-08-28T11:03:35.589Z,12.40
2022-08-28T11:06:50.195Z,12.20
2022-08-28T11:09:52.589Z,11.40
2022-08-28T11:12:55.122Z,12.40
2022-08-28T11:15:57.643Z,10.40
2022-08-28T11:19:24.415Z,11.40
2022-08-28T11:22:36.923Z,9.20
2022-08-28T11:25:54.716Z,10.80
2022-08-28T11:28:57.668Z,12.00
2022-08-28T11:32:33.782Z,11.00
2022-08-28T11:35:44.943Z,11.00
2022-08-28T11:38:53.590Z,11.80
2022-08-28T11:42:29.446Z,12.20
2022-08-28T11:45:45.661Z,10.80
2022-08-28T11:48:51.917Z,11.00
2022-08-28T11:52:15.666Z,10.80
2022-08-28T11:55:24.729Z,11.00
2022-08-28T11:58:45.518Z,10.20
2022-08-28T12:01:47.947Z,11.80
2022-08-28T12:04:50.629Z,10.80
2022-08-28T12:07:53.099Z,10.00
2022-08-28T12:10:57.768Z,10.00
2022-08-28T12:14:00.199Z,11.40
2022-08-28T12:17:02.467Z,10.80
2022-08-28T12:20:11.913Z,12.25
2022-08-28T12:23:33.171Z,12.80
2022-08-28T12:26:38.731Z,12.40
2022-08-28T12:29:48.761Z,9.20
2022-08-28T12:32:56.746Z,12.00
2022-08-28T12:36:04.266Z,12.60
2022-08-28T12:39:06.841Z,11.80
2022-08-28T12:42:16.132Z,13.20
2022-08-28T12:45:23.998Z,11.00
2022-08-28T12:48:32.522Z,13.20
2022-08-28T12:51:37.589Z,12.20
2022-08-28T12:54:40.678Z,12.80
2022-08-28T12:57:46.726Z,12.00
2022-08-28T13:00:54.600Z,12.00
2022-08-28T13:04:26.069Z,13.00
2022-08-28T13:07:34.554Z,12.20
2022-08-28T13:10:39.544Z,10.80
2022-08-28T13:13:47.398Z,12.00
2022-08-28T13:16:49.779Z,13.20
2022-08-28T13:20:02.325Z,12.75
2022-08-28T13:23:05.149Z,13.00
2022-08-28T13:26:07.911Z,12.00
2022-08-28T13:29:24.323Z,12.00
2022-08-28T13:32:28.528Z,12.20
2022-08-28T13:35:40.126Z,10.00
2022-08-28T13:38:43.405Z,10.00
2022-08-28T13:41:53.074Z,10.80
2022-08-28T13:44:56.752Z,9.40
2022-08-28T13:48:00.102Z,11.80
2022-08-28T13:51:10.452Z,12.50
2022-08-28T13:54:14.196Z,10.60
2022-08-28T13:57:17.243Z,9.60
2022-08-28T14:00:21.701Z,10.80
2022-08-28T14:03:43.826Z,9.60
2022-08-28T14:06:46.112Z,11.80
2022-08-28T14:09:50.942Z,8.60
2022-08-28T14:12:56.466Z,11.00
2022-08-28T14:15:58.744Z,8.25
2022-08-28T14:19:04.951Z,6.00
2022-08-28T14:22:07.202Z,8.00
2022-08-28T14:25:10.783Z,9.00
2022-08-28T14:28:14.507Z,9.00
2022-08-28T14:31:17.234Z,9.00
2022-08-28T14:34:22.641Z,8.80
2022-08-28T14:37:25.072Z,8.60
2022-08-28T14:40:27.253Z,8.50
2022-08-28T14:43:30.313Z,8.25
2022-08-28T14:46:34.753Z,8.00
2022-08-28T14:49:37.048Z,7.60
2022-08-28T14:52:39.325Z,8.20
2022-08-28T14:55:44.339Z,7.60
2022-08-28T14:58:46.915Z,9.50
2022-08-28T15:01:49.717Z,9.00
2022-08-28T15:04:51.859Z,8.00
2022-08-28T15:07:54.344Z,7.00
2022-08-28T15:10:56.917Z,9.00
2022-08-28T15:13:59.386Z,7.00
2022-08-28T15:17:01.701Z,9.00
2022-08-28T15:20:06.452Z,8.00
2022-08-28T15:23:09.945Z,8.00
2022-08-28T15:26:15.541Z,8.25
2022-08-28T15:29:18.426Z,8.75
2022-08-28T15:32:21.311Z,9.00
2022-08-28T15:35:23.442Z,10.00
2022-08-28T15:38:25.786Z,9.50
2022-08-28T15:41:29.491Z,9.00
2022-08-28T15:44:32.062Z,9.00
2022-08-28T15:47:34.655Z,12.33
2022-08-28T15:50:38.030Z,10.00
2022-08-28T15:53:40.228Z,10.67
2022-08-28T15:56:42.741Z,9.33
2022-08-28T15:59:49.452Z,10.33
2022-08-28T16:02:59.725Z,13.00
2022-08-28T16:06:02.642Z,11.00
2022-08-28T16:09:06.446Z,11.00
2022-08-28T16:12:08.598Z,9.33
2022-08-28T16:15:11.448Z,12.00
2022-08-28T16:18:15.225Z,12.00
2022-08-28T16:21:18.781Z,11.00
2022-08-28T16:24:20.965Z,12.00
2022-08-28T16:27:23.761Z,13.67
2022-08-28T16:30:26.122Z,12.33
2022-08-28T16:33:30.410Z,12.67
2022-08-28T16:36:33.443Z,12.67
2022-08-28T16:39:36.478Z,13.00
2022-08-28T16:42:38.921Z,11.67
2022-08-28T16:45:45.789Z,11.00
2022-08-28T16:48:48.636Z,12.00
2022-08-28T16:51:51.379Z,11.33
2022-08-28T16:54:53.465Z,12.00
2022-08-28T16:57:55.772Z,12.33
2022-08-28T17:00:58.358Z,13.00
2022-08-28T17:04:01.703Z,13.33
2022-08-28T17:07:04.387Z,17.00
2022-08-28T17:10:08.583Z,14.00
2022-08-28T17:13:11.053Z,12.00
2022-08-28T17:16:13.594Z,13.00
2022-08-28T17:19:15.918Z,13.00
2022-08-28T17:22:37.089Z,14.00
2022-08-28T17:25:39.239Z,13.67
2022-08-28T17:28:42.619Z,14.00
2022-08-28T17:31:44.904Z,12.00
2022-08-28T17:34:47.539Z,13.33
2022-08-28T17:37:50.814Z,16.67
2022-08-28T17:40:53.321Z,15.00
2022-08-28T17:43:55.510Z,15.00
2022-08-28T17:46:57.924Z,16.00
2022-08-28T17:50:01.471Z,16.33
2022-08-28T17:53:03.877Z,17.00
2022-08-28T17:56:06.560Z,11.67
2022-08-28T17:59:09.796Z,8.00
2022-08-28T18:02:16.520Z,11.00
2022-08-28T18:05:19.103Z,10.00
2022-08-28T18:08:22.104Z,9.00
2022-08-28T18:11:24.842Z,10.67
2022-08-28T18:14:27.320Z,10.00
2022-08-28T18:17:30.161Z,10.00
2022-08-28T18:20:32.914Z,10.00
2022-08-28T18:23:35.536Z,11.00
2022-08-28T18:26:37.619Z,11.00
2022-08-28T18:29:39.895Z,9.67
2022-08-28T18:32:42.005Z,9.33
2022-08-28T18:35:49.237Z,9.67
2022-08-28T18:38:52.231Z,9.67
2022-08-28T18:41:55.122Z,9.00
2022-08-28T18:44:57.393Z,9.33
2022-08-28T18:48:00.797Z,9.33
2022-08-28T18:51:07.795Z,9.33
2022-08-28T18:54:12.214Z,7.33
2022-08-28T18:57:15.031Z,8.00
2022-08-28T19:00:17.536Z,9.00
2022-08-28T19:03:20.954Z,10.00
2022-08-28T19:06:23.489Z,8.00
2022-08-28T19:09:32.127Z,9.00
2022-08-28T19:12:34.812Z,8.67
2022-08-28T19:15:37.434Z,8.00
2022-08-28T19:18:39.810Z,8.00
2022-08-28T19:21:42.047Z,7.00
2022-08-28T19:24:44.099Z,8.00
2022-08-28T19:27:46.846Z,6.33
2022-08-28T19:30:53.379Z,7.00
2022-08-28T19:33:56.205Z,6.67
2022-08-28T19:36:59.324Z,4.00
2022-08-28T19:40:01.856Z,5.67
2022-08-28T19:43:05.497Z,7.00
2022-08-28T19:46:18.278Z,5.00
2022-08-28T19:49:22.477Z,6.33
2022-08-28T19:52:25.188Z,5.00
2022-08-28T19:55:28.498Z,5.67
2022-08-28T19:58:31.399Z,5.00
2022-08-28T20:01:37.296Z,5.67
2022-08-28T20:04:39.807Z,5.00
2022-08-28T20:07:42.030Z,4.67
2022-08-28T20:10:46.181Z,5.00
2022-08-28T20:13:55.838Z,5.33
2022-08-28T20:17:05.476Z,4.00
2022-08-28T20:20:10.867Z,4.67
2022-08-28T20:23:14.797Z,4.67
2022-08-28T20:26:17.095Z,5.00
2022-08-28T20:29:19.935Z,4.00
2022-08-28T20:32:22.633Z,4.67
2022-08-28T20:35:25.372Z,5.00
2022-08-28T20:38:29.699Z,4.33
2022-08-28T20:41:32.200Z,5.00
2022-08-28T20:44:34.542Z,4.00
2022-08-28T20:47:37.155Z,5.00
2022-08-28T20:50:40.238Z,6.00
2022-08-28T20:53:43.504Z,4.00
2022-08-28T20:56:45.566Z,4.33
2022-08-28T20:59:49.876Z,4.67
2022-08-28T21:02:52.250Z,4.00
2022-08-28T21:05:55.128Z,3.00
2022-08-28T21:08:57.849Z,4.33
2022-08-28T21:12:00.120Z,5.33
2022-08-28T21:15:02.425Z,4.33
2022-08-28T21:18:05.110Z,5.00
2022-08-28T21:21:07.432Z,5.33
2022-08-28T21:24:13.103Z,4.00
2022-08-28T21:27:15.252Z,4.67
2022-08-28T21:30:22.116Z,4.00
2022-08-28T21:33:24.753Z,4.33
2022-08-28T21:36:27.268Z,5.00
2022-08-28T21:39:29.252Z,5.00
2022-08-28T21:42:32.057Z,5.00
2022-08-28T21:45:34.237Z,5.00
2022-08-28T21:48:37.296Z,4.00
2022-08-28T21:51:39.752Z,5.00
2022-08-28T21:54:42.042Z,5.00
2022-08-28T21:57:44.825Z,5.00
2022-08-28T22:00:50.269Z,6.00
2022-08-28T22:03:53.758Z,6.00
2022-08-28T22:06:59.036Z,6.00
2022-08-28T22:10:02.418Z,4.33
2022-08-28T22:13:05.386Z,7.33
2022-08-28T22:16:08.384Z,6.00
2022-08-28T22:19:10.939Z,6.00
2022-08-28T22:22:33.113Z,6.00
2022-08-28T22:25:40.953Z,7.00
2022-08-28T22:28:43.735Z,8.00
2022-08-28T22:31:46.354Z,8.00
2022-08-28T22:34:49.633Z,6.00
2022-08-28T22:37:52.202Z,7.00
2022-08-28T22:40:54.268Z,8.00
2022-08-28T22:43:56.511Z,8.67
2022-08-28T22:46:58.663Z,8.00
2022-08-28T22:50:01.266Z,8.00
2022-08-28T22:53:03.883Z,7.00
2022-08-28T22:56:06.218Z,8.00
2022-08-28T22:59:09.153Z,8.67
2022-08-28T23:02:12.250Z,8.33
2022-08-28T23:05:15.150Z,8.67
2022-08-28T23:08:18.040Z,8.00
2022-08-28T23:11:20.121Z,8.00
2022-08-28T23:14:23.016Z,7.00
2022-08-28T23:17:25.310Z,8.00
2022-08-28T23:20:28.870Z,8.67
2022-08-28T23:23:30.982Z,8.67
2022-08-28T23:26:33.600Z,8.00
2022-08-28T23:29:35.721Z,8.67
2022-08-28T23:32:38.215Z,8.33
2022-08-28T23:35:41.613Z,8.67
2022-08-28T23:38:43.787Z,8.00
2022-08-28T23:41:45.896Z,7.00
2022-08-28T23:44:48.934Z,9.00
2022-08-28T23:47:51.691Z,7.00
2022-08-28T23:50:54.527Z,8.33
2022-08-28T23:53:56.743Z,7.00
2022-08-28T23:56:59.400Z,9.00
